Time;durP1;ratioP1;P1;durP2;ratioP2;P2;SDS_P1;SDS_P2;PMS_P1;PMS_P2;Temp;Humidity;BMP_temperature;BMP_pressure;BME280_temperature;BME280_humidity;BME280_pressure;Samples;Min_cycle;Max_cycle;Signal;HPM_P1;HPM_P2
2022/06/19 00:01:50;;;;;;;10.67;6.07;;;21.70;69.30;;;;;;4994652;28;20215;-62
2022/06/19 00:04:18;;;;;;;10.40;6.00;;;21.70;99.90;;;;;;4994734;28;20282;-61
2022/06/19 00:06:45;;;;;;;13.50;6.53;;;21.60;99.90;;;;;;4994366;28;20231;-61
2022/06/19 00:09:12;;;;;;;11.63;6.23;;;21.50;99.90;;;;;;4994502;28;20211;-62
2022/06/19 00:11:39;;;;;;;9.97;6.33;;;21.40;1.00;;;;;;4994390;28;20212;-61
2022/06/19 00:14:07;;;;;;;9.30;6.53;;;21.40;1.00;;;;;;4994752;28;20211;-61
2022/06/19 00:16:35;;;;;;;15.83;6.10;;;21.30;99.90;;;;;;4994344;28;20231;-61
2022/06/19 00:19:01;;;;;;;11.47;6.37;;;21.30;99.90;;;;;;4994632;28;20299;-61
2022/06/19 00:21:29;;;;;;;9.87;6.47;;;21.30;99.90;;;;;;4994233;28;20216;-61
2022/06/19 00:23:56;;;;;;;9.53;6.50;;;21.20;1.00;;;;;;4994129;28;20678;-61
2022/06/19 00:26:23;;;;;;;7.83;6.10;;;21.20;99.90;;;;;;4993820;28;20959;-61
2022/06/19 00:28:50;;;;;;;7.70;6.53;;;21.20;1.00;;;;;;4994511;28;20261;-62
2022/06/19 00:31:17;;;;;;;9.93;6.00;;;21.10;1.00;;;;;;4994201;28;20211;-61
2022/06/19 00:33:44;;;;;;;11.77;6.37;;;21.10;99.90;;;;;;4993939;28;20218;-61
2022/06/19 00:36:11;;;;;;;8.40;5.80;;;21.10;99.90;;;;;;4993901;28;20231;-61
2022/06/19 00:38:39;;;;;;;10.40;6.60;;;21.10;99.90;;;;;;4993742;28;20274;-61
2022/06/19 00:41:06;;;;;;;8.90;6.50;;;21.00;1.00;;;;;;4994135;28;20208;-61
2022/06/19 00:43:53;;;;;;;9.63;6.50;;;20.90;99.90;;;;;;4993736;28;20764;-61
2022/06/19 00:46:48;;;;;;;8.23;5.97;;;20.70;1.00;;;;;;4993750;28;20290;-61
2022/06/19 00:49:18;;;;;;;8.03;6.47;;;20.70;99.90;;;;;;4993088;28;20208;-61
2022/06/19 00:51:47;;;;;;;11.87;6.40;;;20.60;1.00;;;;;;4993849;28;20207;-61
2022/06/19 00:54:18;;;;;;;6.73;6.07;;;20.60;1.00;;;;;;4993856;28;20207;-61
2022/06/19 00:56:45;;;;;;;8.00;6.17;;;20.50;1.00;;;;;;4993419;28;20644;-62
2022/06/19 00:59:14;;;;;;;8.17;6.40;;;20.50;11.10;;;;;;4993962;28;20266;-61
2022/06/19 01:01:42;;;;;;;10.17;6.03;;;20.50;13.00;;;;;;4993178;28;20266;-61
2022/06/19 01:04:16;;;;;;;7.30;6.23;;;20.40;99.90;;;;;;4994189;28;20203;-61
2022/06/19 01:06:42;;;;;;;6.60;5.67;;;20.40;83.20;;;;;;4993450;28;20230;-61
2022/06/19 01:09:09;;;;;;;9.03;6.50;;;20.40;63.30;;;;;;4993629;28;20207;-60
2022/06/19 01:11:39;;;;;;;7.57;5.63;;;20.40;33.80;;;;;;4993525;28;20212;-60
2022/06/19 01:14:09;;;;;;;8.00;6.07;;;20.40;29.30;;;;;;4993119;28;20215;-62
2022/06/19 01:16:35;;;;;;;8.37;6.40;;;20.30;99.90;;;;;;4993282;28;20242;-61
2022/06/19 01:19:02;;;;;;;8.63;5.93;;;20.20;99.90;;;;;;4993208;28;20678;-61
2022/06/19 01:21:35;;;;;;;8.20;5.73;;;20.10;99.90;;;;;;4992915;28;20250;-61
2022/06/19 01:24:09;;;;;;;9.90;6.43;;;20.20;99.90;;;;;;4993363;28;20211;-61
2022/06/19 01:26:41;;;;;;;10.90;6.03;;;20.10;99.90;;;;;;4992594;28;20781;-61
2022/06/19 01:29:07;;;;;;;8.60;5.60;;;20.00;99.90;;;;;;4993353;28;20208;-61
2022/06/19 01:31:40;;;;;;;8.40;6.30;;;20.10;99.90;;;;;;4992996;28;20227;-61
2022/06/19 01:36:50;;;;;;;10.03;6.10;;;20.00;99.90;;;;;;4992244;28;20227;-62
2022/06/19 01:39:17;;;;;;;9.77;6.37;;;19.90;99.90;;;;;;4992745;28;20845;-61
2022/06/19 01:41:45;;;;;;;12.30;6.17;;;19.80;1.00;;;;;;4992687;28;20255;-62
2022/06/19 01:44:12;;;;;;;9.03;6.20;;;19.80;1.00;;;;;;4992881;28;20635;-61
2022/06/19 01:46:38;;;;;;;7.43;6.00;;;19.70;1.00;;;;;;4992742;28;20355;-61
2022/06/19 01:49:05;;;;;;;10.33;6.57;;;19.60;1.00;;;;;;4992270;28;20215;-61
2022/06/19 01:51:32;;;;;;;7.00;5.80;;;19.60;1.00;;;;;;4992235;28;20208;-61
2022/06/19 01:54:03;;;;;;;7.07;5.40;;;19.60;1.00;;;;;;4992694;28;20226;-61
2022/06/19 01:56:30;;;;;;;7.67;5.40;;;19.60;1.00;;;;;;4992495;28;20235;-61
2022/06/19 01:59:03;;;;;;;6.70;5.40;;;19.60;1.00;;;;;;4992393;28;20265;-61
2022/06/19 02:01:30;;;;;;;6.63;5.50;;;19.60;1.00;;;;;;4991855;28;20238;-62
2022/06/19 02:04:00;;;;;;;6.80;5.37;;;19.50;1.00;;;;;;4993173;28;20208;-61
2022/06/19 02:06:30;;;;;;;7.80;5.13;;;19.50;1.00;;;;;;4992077;28;20227;-61
2022/06/19 02:09:00;;;;;;;7.97;5.23;;;19.40;1.00;;;;;;4992532;28;20678;-62
2022/06/19 02:11:27;;;;;;;7.57;5.57;;;19.40;1.00;;;;;;4992165;28;20212;-62
2022/06/19 02:13:57;;;;;;;6.17;5.57;;;19.30;1.00;;;;;;4992691;28;20262;-62
2022/06/19 02:16:25;;;;;;;6.10;5.37;;;19.10;1.00;;;;;;4991723;28;20232;-61
2022/06/19 02:18:54;;;;;;;6.47;5.40;;;19.10;1.00;;;;;;4992365;28;20238;-61
2022/06/19 02:21:33;;;;;;;10.43;6.00;;;19.00;1.00;;;;;;4992018;28;20624;-61
2022/06/19 02:24:00;;;;;;;9.23;5.90;;;18.90;1.00;;;;;;4992430;28;20215;-61
2022/06/19 02:26:27;;;;;;;7.47;4.90;;;18.90;1.00;;;;;;4991984;28;20277;-61
2022/06/19 02:28:53;;;;;;;6.70;5.47;;;18.90;1.00;;;;;;4992198;28;20211;-61
2022/06/19 02:31:21;;;;;;;11.13;5.77;;;18.80;1.00;;;;;;4991704;28;20753;-61
2022/06/19 02:33:53;;;;;;;6.87;5.13;;;18.80;1.00;;;;;;4992450;28;20212;-61
2022/06/19 02:36:38;;;;;;;9.20;5.50;;;18.70;1.00;;;;;;4991452;28;20728;-61
2022/06/19 02:39:19;;;;;;;6.77;5.27;;;18.70;1.00;;;;;;4992188;28;20618;-61
2022/06/19 02:41:52;;;;;;;7.13;4.80;;;18.60;1.00;;;;;;4991994;28;20188;-61
2022/06/19 02:44:19;;;;;;;8.63;4.93;;;18.60;1.00;;;;;;4992197;28;20266;-61
2022/06/19 02:46:45;;;;;;;6.67;4.80;;;18.60;1.00;;;;;;4991660;28;20228;-61
2022/06/19 02:49:13;;;;;;;6.43;5.10;;;18.50;1.00;;;;;;4992100;28;20215;-61
2022/06/19 02:51:40;;;;;;;6.87;5.30;;;18.40;1.00;;;;;;4991828;28;20208;-61
2022/06/19 02:54:07;;;;;;;7.13;4.90;;;18.40;1.00;;;;;;4991954;28;20247;-61
2022/06/19 02:56:33;;;;;;;8.63;4.77;;;18.40;1.00;;;;;;4991653;28;20291;-61
2022/06/19 02:59:00;;;;;;;6.47;4.60;;;18.40;1.00;;;;;;4992348;28;20730;-61
2022/06/19 03:01:27;;;;;;;9.10;4.43;;;18.40;1.00;;;;;;4992009;28;20211;-61
2022/06/19 03:03:54;;;;;;;6.43;4.10;;;18.40;1.00;;;;;;4992024;28;20203;-61
2022/06/19 03:06:22;;;;;;;5.73;3.80;;;18.40;1.00;;;;;;4991224;28;20298;-61
2022/06/19 03:08:49;;;;;;;5.13;3.90;;;18.30;1.00;;;;;;4991928;28;20203;-61
2022/06/19 03:11:15;;;;;;;6.60;3.27;;;18.40;1.00;;;;;;4992881;28;20678;-61
2022/06/19 03:13:42;;;;;;;5.77;3.70;;;18.30;1.00;;;;;;4995905;28;20212;-61
2022/06/19 03:16:10;;;;;;;6.73;3.83;;;18.20;1.00;;;;;;4994987;28;20285;-60
2022/06/19 03:18:38;;;;;;;7.77;3.57;;;18.10;1.00;;;;;;4995557;28;20211;-61
2022/06/19 03:21:05;;;;;;;5.07;3.47;;;18.00;1.00;;;;;;4995138;28;20231;-61
2022/06/19 03:23:34;;;;;;;4.53;3.40;;;17.90;1.00;;;;;;4995476;28;20741;-61
2022/06/19 03:26:01;;;;;;;5.40;3.83;;;18.00;1.00;;;;;;4995343;28;20262;-61
2022/06/19 03:28:29;;;;;;;4.97;3.20;;;17.90;1.00;;;;;;4995649;28;20211;-61
2022/06/19 03:30:56;;;;;;;7.73;3.70;;;17.90;1.00;;;;;;4995138;28;20212;-61
2022/06/19 03:33:22;;;;;;;7.33;3.53;;;17.80;1.00;;;;;;4995341;28;20212;-61
2022/06/19 03:35:49;;;;;;;7.13;3.30;;;17.80;1.00;;;;;;4994803;28;20716;-61
2022/06/19 03:38:17;;;;;;;5.73;3.40;;;17.80;1.00;;;;;;4995387;28;20216;-61
2022/06/19 03:40:45;;;;;;;5.50;3.07;;;17.60;1.00;;;;;;4994960;28;20678;-61
2022/06/19 03:43:12;;;;;;;4.10;2.93;;;17.60;1.00;;;;;;4995247;28;20227;-61
2022/06/19 03:45:39;;;;;;;8.00;3.13;;;17.70;1.00;;;;;;4995130;28;20721;-61
2022/06/19 03:48:07;;;;;;;6.43;2.97;;;17.70;99.90;;;;;;4994774;28;20219;-61
2022/06/19 03:50:34;;;;;;;5.80;3.17;;;17.60;99.90;;;;;;4995029;28;20212;-61
2022/06/19 03:53:01;;;;;;;8.37;4.53;;;17.50;99.90;;;;;;4995018;28;20258;-61
2022/06/19 03:55:27;;;;;;;6.97;4.00;;;17.40;99.90;;;;;;4995016;28;20219;-61
2022/06/19 03:57:55;;;;;;;8.40;3.23;;;17.30;99.90;;;;;;4994451;28;20216;-61
2022/06/19 04:00:22;;;;;;;4.80;2.97;;;17.30;99.90;;;;;;4994962;28;20266;-61
2022/06/19 04:02:49;;;;;;;5.23;2.83;;;17.40;1.00;;;;;;4994492;28;20259;-61
2022/06/19 04:05:18;;;;;;;6.00;2.77;;;17.20;1.00;;;;;;4995035;28;20527;-61
2022/06/19 04:07:46;;;;;;;6.20;2.87;;;17.10;99.90;;;;;;4994446;28;20213;-60
2022/06/19 04:10:14;;;;;;;5.73;2.77;;;17.10;99.90;;;;;;4994525;28;20215;-61
2022/06/19 04:12:41;;;;;;;4.73;2.70;;;16.90;55.80;;;;;;4994445;28;20822;-62
2022/06/19 04:15:11;;;;;;;7.23;2.23;;;16.90;1.00;;;;;;4994357;28;20232;-61
2022/06/19 04:17:38;;;;;;;6.87;2.53;;;16.90;99.90;;;;;;4994356;28;20233;-61
2022/06/19 04:20:07;;;;;;;3.10;2.20;;;16.90;1.00;;;;;;4994703;28;20212;-62
2022/06/19 04:22:34;;;;;;;6.63;2.57;;;16.90;99.90;;;;;;4994052;28;20219;-60
2022/06/19 04:25:00;;;;;;;9.07;2.20;;;16.80;99.90;;;;;;4994739;28;20207;-59
2022/06/19 04:27:27;;;;;;;4.07;2.27;;;16.70;3.90;;;;;;4993912;28;20204;-60
2022/06/19 04:29:54;;;;;;;6.57;2.67;;;16.40;1.00;;;;;;4994461;28;20682;-60
2022/06/19 04:32:22;;;;;;;9.20;2.63;;;16.50;99.90;;;;;;4994253;28;20267;-61
2022/06/19 04:34:48;;;;;;;7.57;2.47;;;16.50;1.00;;;;;;4994297;28;20212;-59
2022/06/19 04:37:15;;;;;;;7.67;2.37;;;16.40;6.10;;;;;;4994153;28;20262;-61
2022/06/19 04:39:42;;;;;;;7.03;2.33;;;16.50;99.90;;;;;;4994024;28;20258;-61
2022/06/19 04:42:09;;;;;;;8.17;3.47;;;16.30;99.90;;;;;;4994036;28;20621;-61
2022/06/19 04:44:35;;;;;;;7.77;2.87;;;16.30;1.00;;;;;;4993638;28;20211;-61
2022/06/19 04:47:02;;;;;;;13.10;2.80;;;16.30;94.60;;;;;;4993917;28;20228;-61
2022/06/19 04:49:30;;;;;;;12.47;2.50;;;16.40;99.90;;;;;;4993905;28;20204;-60
2022/06/19 04:51:57;;;;;;;9.50;2.50;;;16.40;99.90;;;;;;4993681;28;20211;-61
2022/06/19 04:54:23;;;;;;;7.23;2.30;;;16.40;99.90;;;;;;4993817;28;20204;-61
2022/06/19 04:56:50;;;;;;;11.50;2.73;;;16.30;78.60;;;;;;4993390;28;20282;-61
2022/06/19 04:59:16;;;;;;;7.23;2.77;;;16.20;1.00;;;;;;4993836;28;20219;-61
2022/06/19 05:01:44;;;;;;;9.50;2.47;;;15.90;1.00;;;;;;4993473;28;20591;-61
2022/06/19 05:04:12;;;;;;;12.93;2.97;;;15.90;1.00;;;;;;4993807;28;20208;-61
2022/06/19 05:06:41;;;;;;;7.60;2.47;;;15.70;1.00;;;;;;4993363;28;20219;-61
2022/06/19 05:09:08;;;;;;;10.83;2.73;;;15.70;1.00;;;;;;4993539;28;20234;-61
2022/06/19 05:11:36;;;;;;;12.87;2.70;;;15.60;99.90;;;;;;4993213;28;20208;-62
2022/06/19 05:14:03;;;;;;;12.07;2.00;;;15.50;99.90;;;;;;4993204;28;20670;-61
2022/06/19 05:16:30;;;;;;;8.27;2.20;;;15.50;99.90;;;;;;4992868;28;20232;-61
2022/06/19 05:18:57;;;;;;;13.43;2.40;;;15.50;31.90;;;;;;4993524;28;20587;-63
2022/06/19 05:21:26;;;;;;;14.70;2.77;;;15.60;1.00;;;;;;4992974;28;20250;-62
2022/06/19 05:23:55;;;;;;;13.67;2.27;;;15.50;1.00;;;;;;4992992;28;20237;-62
2022/06/19 05:26:24;;;;;;;10.13;2.60;;;15.60;1.00;;;;;;4992532;28;20634;-62
2022/06/19 05:28:52;;;;;;;13.17;2.83;;;15.60;99.90;;;;;;4993221;28;20234;-62
2022/06/19 05:31:19;;;;;;;4.53;2.03;;;15.60;99.90;;;;;;4992730;28;20269;-62
2022/06/19 05:33:46;;;;;;;7.27;2.40;;;15.70;99.90;;;;;;4993038;28;20415;-60
2022/06/19 05:36:13;;;;;;;12.73;2.90;;;15.80;99.90;;;;;;4992670;28;20247;-60
2022/06/19 05:38:40;;;;;;;11.00;1.80;;;15.70;99.90;;;;;;4992662;28;20215;-61
2022/06/19 05:41:08;;;;;;;14.13;2.53;;;15.70;7.60;;;;;;4992943;28;20207;-61
2022/06/19 05:43:36;;;;;;;10.77;2.20;;;15.70;14.20;;;;;;4992734;28;20262;-61
2022/06/19 05:46:05;;;;;;;11.00;2.30;;;15.70;1.00;;;;;;4992803;28;20227;-61
2022/06/19 05:48:33;;;;;;;12.10;2.23;;;15.70;1.00;;;;;;4993066;28;20611;-62
2022/06/19 05:51:01;;;;;;;8.10;1.97;;;15.70;1.00;;;;;;4992241;28;20574;-62
2022/06/19 05:53:30;;;;;;;8.83;2.10;;;15.80;1.00;;;;;;4993043;28;20219;-62
2022/06/19 05:55:56;;;;;;;8.47;2.03;;;15.80;1.00;;;;;;4992310;28;20243;-62
2022/06/19 05:58:24;;;;;;;8.63;2.27;;;15.90;99.90;;;;;;4992776;28;20227;-62
2022/06/19 06:00:51;;;;;;;10.17;2.20;;;15.90;99.90;;;;;;4992011;28;20212;-62
2022/06/19 06:03:19;;;;;;;9.87;2.23;;;15.90;1.00;;;;;;4992746;28;20203;-62
2022/06/19 06:05:46;;;;;;;11.00;2.20;;;16.10;1.00;;;;;;4992425;28;20278;-62
2022/06/19 06:08:14;;;;;;;11.90;2.47;;;16.20;99.90;;;;;;4992097;28;20674;-62
2022/06/19 06:10:41;;;;;;;10.63;2.37;;;16.30;99.90;;;;;;4992506;28;20651;-62
2022/06/19 06:13:08;;;;;;;5.83;1.80;;;16.50;99.90;;;;;;4992383;28;20207;-62
2022/06/19 06:15:36;;;;;;;9.40;2.50;;;16.40;99.90;;;;;;4992605;28;20239;-62
2022/06/19 06:18:04;;;;;;;5.80;2.00;;;16.60;99.90;;;;;;4991701;28;20231;-62
2022/06/19 06:20:31;;;;;;;12.97;3.43;;;16.70;99.90;;;;;;4992395;28;20215;-62
2022/06/19 06:22:58;;;;;;;8.50;2.40;;;16.80;99.90;;;;;;4992408;28;20238;-62
2022/06/19 06:25:24;;;;;;;9.07;3.07;;;16.90;99.90;;;;;;4992280;28;20278;-62
2022/06/19 06:27:51;;;;;;;8.60;2.07;;;17.00;99.90;;;;;;4992076;28;20204;-62
2022/06/19 06:30:18;;;;;;;8.77;1.90;;;17.10;99.90;;;;;;4992076;28;20259;-61
2022/06/19 06:32:46;;;;;;;6.63;2.00;;;17.10;99.90;;;;;;4991997;28;20204;-62
2022/06/19 06:35:13;;;;;;;11.00;2.17;;;17.10;99.90;;;;;;4992491;28;20251;-62
2022/06/19 06:37:40;;;;;;;10.03;2.50;;;17.20;99.90;;;;;;4992055;28;20227;-62
2022/06/19 06:40:07;;;;;;;8.90;2.00;;;17.30;99.90;;;;;;4991973;28;20254;-62
2022/06/19 06:42:34;;;;;;;9.37;2.53;;;17.30;99.90;;;;;;4991961;28;20678;-61
2022/06/19 06:45:01;;;;;;;12.90;2.50;;;17.40;99.90;;;;;;4992678;28;20211;-61
2022/06/19 06:47:28;;;;;;;14.47;2.60;;;17.50;99.90;;;;;;4997627;28;20207;-62
2022/06/19 06:49:56;;;;;;;12.20;2.50;;;17.50;99.90;;;;;;4998776;28;20323;-62
2022/06/19 06:52:23;;;;;;;13.70;2.07;;;17.50;99.90;;;;;;4998366;28;20358;-62
2022/06/19 06:54:49;;;;;;;9.60;2.40;;;17.60;99.90;;;;;;4998591;28;20553;-62
2022/06/19 06:57:16;;;;;;;7.57;2.57;;;17.60;99.90;;;;;;4998243;28;20235;-62
2022/06/19 06:59:43;;;;;;;9.00;2.20;;;17.80;99.90;;;;;;4998495;28;20219;-62
2022/06/19 07:02:11;;;;;;;8.00;2.23;;;17.90;99.90;;;;;;4998473;28;20617;-62
2022/06/19 07:04:38;;;;;;;9.07;2.40;;;18.00;99.90;;;;;;4998647;28;20580;-62
2022/06/19 07:07:06;;;;;;;9.13;2.47;;;18.10;99.90;;;;;;4997973;28;20310;-62
2022/06/19 07:09:33;;;;;;;10.40;2.80;;;18.00;99.90;;;;;;4998645;28;20216;-62
2022/06/19 07:11:59;;;;;;;9.07;2.60;;;17.80;99.90;;;;;;4997752;28;20208;-62
2022/06/19 07:14:26;;;;;;;10.30;3.13;;;18.00;99.90;;;;;;4998069;28;20238;-62
2022/06/19 07:16:53;;;;;;;9.80;2.67;;;17.90;99.90;;;;;;4998136;28;20231;-59
2022/06/19 07:19:19;;;;;;;9.83;2.50;;;18.10;99.90;;;;;;4998309;28;20632;-59
2022/06/19 07:21:46;;;;;;;10.53;2.57;;;18.40;99.90;;;;;;4998200;28;20207;-59
2022/06/19 07:24:14;;;;;;;10.67;3.03;;;18.80;99.90;;;;;;4998221;28;20215;-60
2022/06/19 07:26:40;;;;;;;10.27;2.43;;;18.80;99.90;;;;;;4998045;28;20235;-60
2022/06/19 07:29:08;;;;;;;11.90;3.07;;;19.10;99.90;;;;;;4997872;28;20257;-60
2022/06/19 07:31:35;;;;;;;13.60;3.27;;;19.00;99.90;;;;;;4998184;28;20211;-60
2022/06/19 07:34:02;;;;;;;6.37;2.60;;;19.30;99.90;;;;;;4998357;28;20588;-60
2022/06/19 07:36:29;;;;;;;9.87;2.83;;;19.70;99.90;;;;;;4997651;28;20242;-59
2022/06/19 07:38:56;;;;;;;11.20;2.60;;;19.70;99.90;;;;;;4998038;28;20270;-60
2022/06/19 07:41:24;;;;;;;9.43;2.03;;;19.70;99.90;;;;;;4997609;28;20761;-51
2022/06/19 07:43:51;;;;;;;10.50;2.70;;;19.60;99.90;;;;;;4998161;28;20554;-53
2022/06/19 07:46:18;;;;;;;7.50;2.37;;;19.70;99.90;;;;;;4997721;28;20741;-56
2022/06/19 07:51:30;;;;;;;9.27;2.33;;;19.80;99.90;;;;;;4998187;28;20286;-58
2022/06/19 07:53:57;;;;;;;10.83;2.60;;;19.80;99.90;;;;;;4997667;28;20690;-57
2022/06/19 07:56:25;;;;;;;10.90;2.23;;;19.60;99.90;;;;;;4997424;28;20714;-63
2022/06/19 07:58:52;;;;;;;8.60;2.37;;;19.60;99.90;;;;;;4991962;28;20231;-59
2022/06/19 08:01:19;;;;;;;10.57;2.17;;;19.70;99.90;;;;;;4990201;28;20230;-57
2022/06/19 08:03:46;;;;;;;7.47;2.10;;;20.00;99.90;;;;;;4994845;28;20219;-64
2022/06/19 08:06:14;;;;;;;7.70;2.03;;;20.20;99.90;;;;;;4994410;28;20253;-67
2022/06/19 08:08:42;;;;;;;10.60;2.70;;;20.30;99.90;;;;;;4994371;28;20671;-61
2022/06/19 08:11:09;;;;;;;9.87;2.10;;;20.20;99.90;;;;;;4994601;28;20215;-63
2022/06/19 08:13:37;;;;;;;12.47;2.23;;;20.30;99.90;;;;;;4994715;28;20208;-63
2022/06/19 08:16:07;;;;;;;10.30;2.77;;;20.30;99.90;;;;;;4994163;28;20235;-63
2022/06/19 08:18:36;;;;;;;13.53;3.00;;;20.60;99.90;;;;;;4994499;28;20231;-60
2022/06/19 08:21:03;;;;;;;8.50;2.40;;;20.60;99.90;;;;;;4994463;28;20214;-60
2022/06/19 08:23:31;;;;;;;11.77;2.17;;;20.60;99.90;;;;;;4994318;28;20211;-59
2022/06/19 08:25:59;;;;;;;10.40;2.87;;;20.40;99.90;;;;;;4994050;28;20322;-59
2022/06/19 08:28:28;;;;;;;8.47;2.20;;;20.30;99.90;;;;;;4994335;28;20208;-59
2022/06/19 08:30:56;;;;;;;11.83;2.20;;;20.50;99.90;;;;;;4994486;28;20299;-62
2022/06/19 08:33:23;;;;;;;10.37;2.20;;;20.40;99.90;;;;;;4994227;28;20216;-59
2022/06/19 08:35:52;;;;;;;9.97;2.77;;;20.50;99.90;;;;;;4994226;28;20283;-61
2022/06/19 08:38:25;;;;;;;13.20;2.90;;;20.50;99.90;;;;;;4994242;28;20298;-61
2022/06/19 08:41:15;;;;;;;13.13;3.00;;;20.50;99.90;;;;;;4994135;28;20211;-63
2022/06/19 08:44:04;;;;;;;11.60;2.57;;;20.70;99.90;;;;;;4994152;28;20212;-58
2022/06/19 08:46:43;;;;;;;12.83;2.80;;;21.20;99.90;;;;;;4993836;28;20227;-57
2022/06/19 08:49:21;;;;;;;11.43;3.60;;;21.60;99.90;;;;;;4994358;28;20229;-58
2022/06/19 08:51:58;;;;;;;13.13;2.93;;;21.40;99.90;;;;;;4993616;28;20220;-58
2022/06/19 08:54:37;;;;;;;14.87;2.80;;;21.20;99.90;;;;;;4994040;28;20204;-59
2022/06/19 08:57:14;;;;;;;11.80;3.00;;;21.50;99.90;;;;;;4993496;28;20231;-59
2022/06/19 08:59:53;;;;;;;12.43;2.60;;;21.50;99.90;;;;;;4994056;28;20208;-59
2022/06/19 09:02:33;;;;;;;11.73;2.50;;;21.40;99.90;;;;;;4993610;28;20670;-57
2022/06/19 09:08:08;;;;;;;13.00;2.93;;;21.10;99.90;;;;;;4993517;28;20198;-55
2022/06/19 09:10:45;;;;;;;10.10;2.70;;;21.20;99.90;;;;;;4993275;28;20208;-61
2022/06/19 09:13:39;;;;;;;10.60;2.57;;;21.20;99.90;;;;;;4993312;28;20632;-59
2022/06/19 09:16:16;;;;;;;9.63;2.67;;;21.30;99.90;;;;;;4990836;28;20232;-58
2022/06/19 09:18:53;;;;;;;9.13;2.40;;;21.30;99.90;;;;;;4993545;28;20722;-58
2022/06/19 09:21:28;;;;;;;9.60;3.40;;;21.40;99.90;;;;;;4993057;28;20211;-58
2022/06/19 09:24:16;;;;;;;11.73;3.47;;;21.10;99.90;;;;;;4993777;28;20207;-59
2022/06/19 09:26:46;;;;;;;9.50;3.00;;;20.90;99.90;;;;;;4992851;28;20228;-59
2022/06/19 09:29:15;;;;;;;10.10;2.83;;;21.10;99.90;;;;;;4993514;28;20208;-59
2022/06/19 09:31:49;;;;;;;13.43;2.90;;;21.30;99.90;;;;;;4993030;28;20218;-58
2022/06/19 09:34:21;;;;;;;8.97;2.80;;;21.40;99.90;;;;;;4993150;28;20302;-58
2022/06/19 09:36:55;;;;;;;12.37;2.93;;;21.00;99.90;;;;;;4992865;28;20285;-60
2022/06/19 09:39:26;;;;;;;10.33;2.77;;;21.10;99.90;;;;;;4992865;28;20290;-59
2022/06/19 09:41:59;;;;;;;8.93;2.50;;;21.10;99.90;;;;;;4992811;28;20702;-66
2022/06/19 09:44:32;;;;;;;10.00;2.57;;;20.80;99.10;;;;;;4992710;28;20204;-64
2022/06/19 09:47:06;;;;;;;7.80;2.87;;;20.30;99.90;;;;;;4992887;28;20263;-66
2022/06/19 09:49:40;;;;;;;6.13;2.63;;;20.20;99.90;;;;;;4992514;28;20214;-64
2022/06/19 09:52:13;;;;;;;9.17;2.80;;;20.50;99.90;;;;;;4992937;28;20670;-63
2022/06/19 09:54:43;;;;;;;8.93;2.73;;;20.70;99.90;;;;;;4993163;28;20204;-62
2022/06/19 09:57:12;;;;;;;14.27;2.67;;;20.90;99.90;;;;;;4992315;28;20651;-63
2022/06/19 09:59:46;;;;;;;8.87;2.50;;;21.00;96.50;;;;;;4993465;28;20215;-63
2022/06/19 10:02:18;;;;;;;9.43;2.93;;;21.10;99.80;;;;;;4992935;28;20207;-63
2022/06/19 10:04:51;;;;;;;8.80;2.13;;;20.70;99.90;;;;;;4993153;28;20204;-63
2022/06/19 10:07:26;;;;;;;10.93;2.60;;;20.70;99.90;;;;;;4992303;28;20745;-63
2022/06/19 10:09:56;;;;;;;9.33;2.67;;;20.70;99.90;;;;;;4993215;28;20210;-63
2022/06/19 10:12:30;;;;;;;11.33;2.60;;;20.70;99.90;;;;;;4993035;28;20278;-62
2022/06/19 10:15:02;;;;;;;10.00;2.57;;;20.80;99.90;;;;;;4992267;28;20216;-63
2022/06/19 10:17:46;;;;;;;7.17;2.37;;;20.80;99.90;;;;;;4992463;28;20203;-63
2022/06/19 10:20:17;;;;;;;9.70;2.63;;;21.10;99.90;;;;;;4992081;28;20208;-63
2022/06/19 10:22:57;;;;;;;11.17;2.60;;;21.40;99.90;;;;;;4992935;28;20211;-63
2022/06/19 10:25:45;;;;;;;14.63;2.47;;;21.40;99.90;;;;;;4992332;28;20281;-63
2022/06/19 10:28:34;;;;;;;10.30;2.80;;;21.70;99.90;;;;;;4992079;28;20314;-63
2022/06/19 10:31:06;;;;;;;12.17;2.73;;;21.80;99.90;;;;;;4992598;28;20203;-62
2022/06/19 10:33:45;;;;;;;10.27;2.63;;;21.70;99.90;;;;;;4992989;28;20211;-63
2022/06/19 10:36:18;;;;;;;12.00;3.07;;;21.50;99.90;;;;;;4991958;28;20230;-62
2022/06/19 10:38:57;;;;;;;9.37;2.67;;;21.50;99.90;;;;;;4992509;28;20224;-62
2022/06/19 10:44:25;;;;;;;11.17;3.00;;;20.50;99.90;;;;;;4992767;28;20672;-62
2022/06/19 10:47:02;;;;;;;7.30;2.43;;;20.60;99.90;;;;;;4992106;28;20301;-63
2022/06/19 10:49:38;;;;;;;11.73;3.27;;;20.70;99.90;;;;;;4992550;28;20720;-62
2022/06/19 10:52:16;;;;;;;11.07;3.40;;;20.80;99.90;;;;;;4992328;28;20259;-62
2022/06/19 10:55:16;;;;;;;11.20;2.43;;;20.70;99.90;;;;;;4992580;28;20573;-62
2022/06/19 10:57:57;;;;;;;9.50;2.80;;;20.70;99.90;;;;;;4992302;28;20214;-62
2022/06/19 11:00:24;;;;;;;10.77;2.43;;;21.00;99.90;;;;;;4992704;28;20215;-62
2022/06/19 11:05:49;;;;;;;12.10;2.73;;;21.60;99.90;;;;;;4992047;28;20227;-62
2022/06/19 11:08:20;;;;;;;8.17;2.80;;;21.70;99.90;;;;;;4991957;28;20261;-62
2022/06/19 11:10:50;;;;;;;8.93;2.77;;;21.70;99.90;;;;;;4992350;28;20215;-62
2022/06/19 11:13:17;;;;;;;10.13;2.80;;;21.80;99.90;;;;;;4992309;28;20207;-63
2022/06/19 11:15:48;;;;;;;11.90;2.90;;;21.60;99.90;;;;;;4991878;28;20243;-62
2022/06/19 11:18:17;;;;;;;13.03;2.37;;;21.60;99.90;;;;;;4991821;28;20235;-63
2022/06/19 11:20:59;;;;;;;15.77;3.10;;;21.70;99.90;;;;;;4992197;28;20204;-62
2022/06/19 11:23:31;;;;;;;9.03;3.13;;;22.00;99.90;;;;;;4992288;28;20204;-64
2022/06/19 11:26:05;;;;;;;14.33;2.93;;;22.20;99.90;;;;;;4991762;28;20315;-62
2022/06/19 11:28:55;;;;;;;7.83;2.37;;;21.90;99.90;;;;;;4991989;28;20553;-62
2022/06/19 11:31:25;;;;;;;16.83;3.23;;;22.20;99.90;;;;;;4987993;28;20215;-63
2022/06/19 11:34:01;;;;;;;14.70;3.53;;;22.00;99.90;;;;;;4995631;28;20211;-63
2022/06/19 11:36:35;;;;;;;12.27;2.80;;;22.10;99.90;;;;;;4995577;28;20243;-63
2022/06/19 11:39:31;;;;;;;8.50;3.07;;;22.10;99.90;;;;;;4994844;28;20286;-63
2022/06/19 11:41:57;;;;;;;10.30;3.00;;;22.20;99.90;;;;;;4995744;28;20208;-64
2022/06/19 11:44:24;;;;;;;12.07;3.03;;;22.40;99.90;;;;;;4995614;28;20254;-63
2022/06/19 11:46:53;;;;;;;7.30;2.80;;;22.60;99.90;;;;;;4995347;28;20236;-63
2022/06/19 11:49:30;;;;;;;11.20;3.60;;;22.50;99.90;;;;;;4995378;28;20671;-63
2022/06/19 11:52:00;;;;;;;7.80;2.50;;;22.10;99.90;;;;;;4995725;28;20219;-63
2022/06/19 11:54:31;;;;;;;8.90;2.80;;;22.20;99.90;;;;;;4995467;28;20262;-63
2022/06/19 11:56:59;;;;;;;12.60;2.87;;;22.30;99.90;;;;;;4994723;28;20239;-63
2022/06/19 11:59:36;;;;;;;13.53;3.20;;;22.10;99.90;;;;;;4995193;28;20232;-63
2022/06/19 12:02:21;;;;;;;11.80;3.27;;;22.10;99.90;;;;;;4995047;28;20204;-62
2022/06/19 12:04:53;;;;;;;13.30;3.50;;;22.10;99.90;;;;;;4995292;28;20265;-62
2022/06/19 12:07:22;;;;;;;11.53;3.20;;;22.10;99.90;;;;;;4994858;28;20233;-62
2022/06/19 12:09:58;;;;;;;12.73;3.20;;;22.10;99.90;;;;;;4995127;28;20215;-62
2022/06/19 12:12:25;;;;;;;12.57;3.30;;;22.30;99.90;;;;;;4994886;28;20591;-62
2022/06/19 12:14:56;;;;;;;6.93;2.83;;;22.30;99.90;;;;;;4994891;28;20216;-62
2022/06/19 12:17:26;;;;;;;11.23;2.83;;;22.60;99.90;;;;;;4994557;28;20258;-61
2022/06/19 12:19:56;;;;;;;11.10;2.83;;;22.50;99.90;;;;;;4994887;28;20698;-61
2022/06/19 12:22:36;;;;;;;9.70;2.90;;;22.60;99.90;;;;;;4994959;28;20246;-62
2022/06/19 12:25:11;;;;;;;9.13;2.87;;;22.90;99.90;;;;;;4995195;28;20249;-62
2022/06/19 12:27:43;;;;;;;10.83;3.00;;;23.20;99.90;;;;;;4994770;28;20856;-62
2022/06/19 12:30:18;;;;;;;10.07;2.87;;;23.00;99.90;;;;;;4994747;28;20243;-62
2022/06/19 12:32:47;;;;;;;8.33;3.20;;;22.60;99.90;;;;;;4994796;28;20215;-62
2022/06/19 12:35:25;;;;;;;8.33;2.80;;;22.60;99.90;;;;;;4994543;28;20231;-62
2022/06/19 12:37:52;;;;;;;8.70;3.03;;;22.50;99.90;;;;;;4994749;28;20203;-62
2022/06/19 12:40:26;;;;;;;12.20;2.80;;;22.60;99.90;;;;;;4994604;28;20227;-62
2022/06/19 12:43:00;;;;;;;9.23;3.23;;;22.70;99.90;;;;;;4994750;28;20282;-62
2022/06/19 12:45:42;;;;;;;9.80;2.87;;;22.80;99.90;;;;;;4994486;28;20235;-62
2022/06/19 12:48:29;;;;;;;11.33;2.97;;;23.00;99.90;;;;;;4994372;28;20215;-63
2022/06/19 12:51:00;;;;;;;11.60;2.83;;;23.00;99.90;;;;;;4994572;28;20207;-63
2022/06/19 12:53:42;;;;;;;12.50;3.57;;;23.20;99.90;;;;;;4994408;28;20211;-63
2022/06/19 12:56:19;;;;;;;9.10;3.27;;;23.20;99.90;;;;;;4993902;28;20278;-63
2022/06/19 12:59:00;;;;;;;11.57;3.20;;;22.60;99.90;;;;;;4994355;28;20640;-63
2022/06/19 13:01:39;;;;;;;15.20;4.33;;;22.60;99.90;;;;;;4994255;28;20700;-63
2022/06/19 13:04:18;;;;;;;10.43;2.90;;;22.90;99.90;;;;;;4994274;28;20260;-63
2022/06/19 13:06:57;;;;;;;11.07;3.33;;;23.00;99.90;;;;;;4993703;28;20274;-63
2022/06/19 13:09:39;;;;;;;12.57;3.10;;;22.90;99.90;;;;;;4994234;28;20203;-63
2022/06/19 13:12:15;;;;;;;7.80;3.30;;;23.00;99.90;;;;;;4994306;28;20258;-63
2022/06/19 13:14:56;;;;;;;11.60;2.90;;;22.80;99.90;;;;;;4993713;28;20212;-63
2022/06/19 13:17:27;;;;;;;13.60;3.20;;;23.00;99.90;;;;;;4993498;28;20294;-63